sensor_id;sensor_type;location;lat;lon;timestamp;P1;durP1;ratioP1;P2;durP2;ratioP2
64110;SDS011;50401;48.188;11.566;2024-02-26T00:01:35;8.23;;;4.35;;
64110;SDS011;50401;48.188;11.566;2024-02-26T00:04:01;5.05;;;4.20;;
64110;SDS011;50401;48.188;11.566;2024-02-26T00:06:27;8.75;;;4.05;;
64110;SDS011;50401;48.188;11.566;2024-02-26T00:08:53;8.27;;;4.15;;
64110;SDS011;50401;48.188;11.566;2024-02-26T00:11:18;5.03;;;3.60;;
64110;SDS011;50401;48.188;11.566;2024-02-26T00:13:44;6.88;;;3.55;;
64110;SDS011;50401;48.188;11.566;2024-02-26T00:16:09;5.28;;;3.25;;
64110;SDS011;50401;48.188;11.566;2024-02-26T00:18:34;4.30;;;3.00;;
64110;SDS011;50401;48.188;11.566;2024-02-26T00:21:00;4.78;;;3.15;;
64110;SDS011;50401;48.188;11.566;2024-02-26T00:23:25;6.03;;;3.80;;
64110;SDS011;50401;48.188;11.566;2024-02-26T00:25:52;6.13;;;3.47;;
64110;SDS011;50401;48.188;11.566;2024-02-26T00:28:17;5.22;;;3.30;;
64110;SDS011;50401;48.188;11.566;2024-02-26T00:30:44;5.07;;;3.90;;
64110;SDS011;50401;48.188;11.566;2024-02-26T00:33:10;5.97;;;3.67;;
64110;SDS011;50401;48.188;11.566;2024-02-26T00:35:35;5.13;;;3.10;;
64110;SDS011;50401;48.188;11.566;2024-02-26T00:38:01;6.55;;;3.88;;
64110;SDS011;50401;48.188;11.566;2024-02-26T00:40:28;4.32;;;3.38;;
64110;SDS011;50401;48.188;11.566;2024-02-26T00:42:53;7.13;;;3.65;;
64110;SDS011;50401;48.188;11.566;2024-02-26T00:45:19;5.97;;;3.55;;
64110;SDS011;50401;48.188;11.566;2024-02-26T00:47:44;8.18;;;3.58;;
64110;SDS011;50401;48.188;11.566;2024-02-26T00:50:12;4.53;;;3.20;;
64110;SDS011;50401;48.188;11.566;2024-02-26T00:52:38;5.28;;;3.33;;
64110;SDS011;50401;48.188;11.566;2024-02-26T00:55:03;5.03;;;3.55;;
64110;SDS011;50401;48.188;11.566;2024-02-26T00:57:29;5.07;;;3.50;;
64110;SDS011;50401;48.188;11.566;2024-02-26T00:59:54;4.97;;;3.40;;
64110;SDS011;50401;48.188;11.566;2024-02-26T01:02:21;6.07;;;3.22;;
64110;SDS011;50401;48.188;11.566;2024-02-26T01:04:47;7.18;;;3.58;;
64110;SDS011;50401;48.188;11.566;2024-02-26T01:07:12;4.35;;;3.13;;
64110;SDS011;50401;48.188;11.566;2024-02-26T01:09:38;4.10;;;3.03;;
64110;SDS011;50401;48.188;11.566;2024-02-26T01:12:03;5.88;;;3.47;;
64110;SDS011;50401;48.188;11.566;2024-02-26T01:14:29;8.50;;;3.47;;
64110;SDS011;50401;48.188;11.566;2024-02-26T01:16:54;5.75;;;3.40;;
64110;SDS011;50401;48.188;11.566;2024-02-26T01:19:20;4.25;;;2.95;;
64110;SDS011;50401;48.188;11.566;2024-02-26T01:21:46;4.88;;;3.10;;
64110;SDS011;50401;48.188;11.566;2024-02-26T01:24:11;4.82;;;2.95;;
64110;SDS011;50401;48.188;11.566;2024-02-26T01:26:36;6.70;;;4.05;;
64110;SDS011;50401;48.188;11.566;2024-02-26T01:29:02;4.75;;;3.30;;
64110;SDS011;50401;48.188;11.566;2024-02-26T01:31:27;3.50;;;2.70;;
64110;SDS011;50401;48.188;11.566;2024-02-26T01:33:53;5.25;;;3.17;;
64110;SDS011;50401;48.188;11.566;2024-02-26T01:36:18;6.32;;;3.17;;
64110;SDS011;50401;48.188;11.566;2024-02-26T01:38:44;4.80;;;3.22;;
64110;SDS011;50401;48.188;11.566;2024-02-26T01:41:09;5.55;;;3.08;;
64110;SDS011;50401;48.188;11.566;2024-02-26T01:43:35;6.63;;;3.78;;
64110;SDS011;50401;48.188;11.566;2024-02-26T01:46:00;5.70;;;3.67;;
64110;SDS011;50401;48.188;11.566;2024-02-26T01:48:25;5.13;;;3.20;;
64110;SDS011;50401;48.188;11.566;2024-02-26T01:50:51;5.53;;;3.67;;
64110;SDS011;50401;48.188;11.566;2024-02-26T01:53:17;5.55;;;3.03;;
64110;SDS011;50401;48.188;11.566;2024-02-26T01:55:43;4.90;;;3.28;;
64110;SDS011;50401;48.188;11.566;2024-02-26T01:58:10;5.97;;;3.45;;
64110;SDS011;50401;48.188;11.566;2024-02-26T02:00:36;4.65;;;3.45;;
64110;SDS011;50401;48.188;11.566;2024-02-26T02:03:03;4.35;;;3.05;;
64110;SDS011;50401;48.188;11.566;2024-02-26T02:05:30;4.28;;;3.00;;
64110;SDS011;50401;48.188;11.566;2024-02-26T02:07:55;8.57;;;3.20;;
64110;SDS011;50401;48.188;11.566;2024-02-26T02:10:21;4.30;;;3.10;;
64110;SDS011;50401;48.188;11.566;2024-02-26T02:12:50;6.22;;;3.17;;
64110;SDS011;50401;48.188;11.566;2024-02-26T02:15:16;5.53;;;2.80;;
64110;SDS011;50401;48.188;11.566;2024-02-26T02:17:42;5.30;;;2.90;;
64110;SDS011;50401;48.188;11.566;2024-02-26T02:20:17;5.90;;;2.42;;
64110;SDS011;50401;48.188;11.566;2024-02-26T02:22:44;3.75;;;2.70;;
64110;SDS011;50401;48.188;11.566;2024-02-26T02:25:10;4.47;;;3.25;;
64110;SDS011;50401;48.188;11.566;2024-02-26T02:27:35;3.72;;;2.70;;
64110;SDS011;50401;48.188;11.566;2024-02-26T02:30:01;3.80;;;2.55;;
64110;SDS011;50401;48.188;11.566;2024-02-26T02:32:27;2.92;;;2.35;;
64110;SDS011;50401;48.188;11.566;2024-02-26T02:34:54;4.22;;;2.72;;
64110;SDS011;50401;48.188;11.566;2024-02-26T02:37:20;6.07;;;3.00;;
64110;SDS011;50401;48.188;11.566;2024-02-26T02:39:45;3.47;;;2.50;;
64110;SDS011;50401;48.188;11.566;2024-02-26T02:42:11;4.45;;;2.55;;
64110;SDS011;50401;48.188;11.566;2024-02-26T02:44:37;5.97;;;2.70;;
64110;SDS011;50401;48.188;11.566;2024-02-26T02:47:02;4.60;;;2.75;;
64110;SDS011;50401;48.188;11.566;2024-02-26T02:49:28;5.68;;;2.13;;
64110;SDS011;50401;48.188;11.566;2024-02-26T02:51:53;3.65;;;2.50;;
64110;SDS011;50401;48.188;11.566;2024-02-26T02:54:19;4.05;;;2.80;;
64110;SDS011;50401;48.188;11.566;2024-02-26T02:56:45;4.47;;;2.70;;
64110;SDS011;50401;48.188;11.566;2024-02-26T02:59:10;5.70;;;2.50;;
64110;SDS011;50401;48.188;11.566;2024-02-26T03:01:36;4.63;;;2.55;;
64110;SDS011;50401;48.188;11.566;2024-02-26T03:04:01;3.47;;;2.47;;
64110;SDS011;50401;48.188;11.566;2024-02-26T03:06:26;5.78;;;2.55;;
64110;SDS011;50401;48.188;11.566;2024-02-26T03:08:53;4.80;;;2.95;;
64110;SDS011;50401;48.188;11.566;2024-02-26T03:11:19;3.75;;;2.40;;
64110;SDS011;50401;48.188;11.566;2024-02-26T03:13:45;4.10;;;2.85;;
64110;SDS011;50401;48.188;11.566;2024-02-26T03:16:10;3.60;;;2.60;;
64110;SDS011;50401;48.188;11.566;2024-02-26T03:18:38;11.25;;;3.40;;
64110;SDS011;50401;48.188;11.566;2024-02-26T03:21:05;5.05;;;2.95;;
64110;SDS011;50401;48.188;11.566;2024-02-26T03:23:30;4.15;;;2.90;;
64110;SDS011;50401;48.188;11.566;2024-02-26T03:25:57;6.32;;;3.10;;
64110;SDS011;50401;48.188;11.566;2024-02-26T03:28:23;4.55;;;2.70;;
64110;SDS011;50401;48.188;11.566;2024-02-26T03:30:48;5.45;;;3.00;;
64110;SDS011;50401;48.188;11.566;2024-02-26T03:33:13;3.47;;;2.75;;
64110;SDS011;50401;48.188;11.566;2024-02-26T03:35:39;4.28;;;3.10;;
64110;SDS011;50401;48.188;11.566;2024-02-26T03:38:04;4.20;;;2.85;;
64110;SDS011;50401;48.188;11.566;2024-02-26T03:40:29;3.50;;;2.67;;
64110;SDS011;50401;48.188;11.566;2024-02-26T03:42:55;3.90;;;2.60;;
64110;SDS011;50401;48.188;11.566;2024-02-26T03:45:22;4.22;;;2.63;;
64110;SDS011;50401;48.188;11.566;2024-02-26T03:47:47;4.75;;;2.72;;
64110;SDS011;50401;48.188;11.566;2024-02-26T03:50:13;5.38;;;2.95;;
64110;SDS011;50401;48.188;11.566;2024-02-26T03:52:38;5.18;;;2.70;;
64110;SDS011;50401;48.188;11.566;2024-02-26T03:55:04;5.20;;;2.53;;
64110;SDS011;50401;48.188;11.566;2024-02-26T03:57:29;4.95;;;3.03;;
64110;SDS011;50401;48.188;11.566;2024-02-26T03:59:55;4.57;;;2.70;;
64110;SDS011;50401;48.188;11.566;2024-02-26T04:02:21;2.85;;;2.30;;
64110;SDS011;50401;48.188;11.566;2024-02-26T04:04:48;5.32;;;2.72;;
64110;SDS011;50401;48.188;11.566;2024-02-26T04:07:14;2.75;;;2.22;;
64110;SDS011;50401;48.188;11.566;2024-02-26T04:09:39;3.13;;;2.00;;
64110;SDS011;50401;48.188;11.566;2024-02-26T04:12:05;3.95;;;2.50;;
64110;SDS011;50401;48.188;11.566;2024-02-26T04:14:30;3.28;;;2.15;;
64110;SDS011;50401;48.188;11.566;2024-02-26T04:16:56;4.47;;;2.28;;
64110;SDS011;50401;48.188;11.566;2024-02-26T04:19:21;2.58;;;2.08;;
64110;SDS011;50401;48.188;11.566;2024-02-26T04:21:46;4.45;;;2.50;;
64110;SDS011;50401;48.188;11.566;2024-02-26T04:24:12;4.40;;;2.53;;
64110;SDS011;50401;48.188;11.566;2024-02-26T04:26:37;3.72;;;2.13;;
64110;SDS011;50401;48.188;11.566;2024-02-26T04:29:02;3.63;;;2.65;;
64110;SDS011;50401;48.188;11.566;2024-02-26T04:31:28;3.33;;;2.35;;
64110;SDS011;50401;48.188;11.566;2024-02-26T04:33:53;5.55;;;2.55;;
64110;SDS011;50401;48.188;11.566;2024-02-26T04:36:19;4.88;;;2.40;;
64110;SDS011;50401;48.188;11.566;2024-02-26T04:38:44;3.38;;;2.45;;
64110;SDS011;50401;48.188;11.566;2024-02-26T04:41:10;3.05;;;2.33;;
64110;SDS011;50401;48.188;11.566;2024-02-26T04:43:35;3.47;;;2.20;;
64110;SDS011;50401;48.188;11.566;2024-02-26T04:46:06;2.92;;;2.70;;
64110;SDS011;50401;48.188;11.566;2024-02-26T04:48:33;3.00;;;2.22;;
64110;SDS011;50401;48.188;11.566;2024-02-26T04:50:59;1.90;;;1.67;;
64110;SDS011;50401;48.188;11.566;2024-02-26T04:53:24;3.42;;;2.05;;
64110;SDS011;50401;48.188;11.566;2024-02-26T04:55:49;2.70;;;1.75;;
64110;SDS011;50401;48.188;11.566;2024-02-26T04:58:15;5.30;;;2.15;;
64110;SDS011;50401;48.188;11.566;2024-02-26T05:00:40;2.88;;;2.17;;
64110;SDS011;50401;48.188;11.566;2024-02-26T05:03:05;6.60;;;1.83;;
64110;SDS011;50401;48.188;11.566;2024-02-26T05:05:31;4.00;;;2.47;;
64110;SDS011;50401;48.188;11.566;2024-02-26T05:07:56;5.03;;;2.15;;
64110;SDS011;50401;48.188;11.566;2024-02-26T05:10:21;3.55;;;2.15;;
64110;SDS011;50401;48.188;11.566;2024-02-26T05:12:47;4.18;;;2.30;;
64110;SDS011;50401;48.188;11.566;2024-02-26T05:15:13;3.30;;;1.70;;
64110;SDS011;50401;48.188;11.566;2024-02-26T05:17:43;2.92;;;2.08;;
64110;SDS011;50401;48.188;11.566;2024-02-26T05:20:08;4.35;;;1.70;;
64110;SDS011;50401;48.188;11.566;2024-02-26T05:22:34;3.58;;;1.88;;
64110;SDS011;50401;48.188;11.566;2024-02-26T05:24:59;2.35;;;1.90;;
64110;SDS011;50401;48.188;11.566;2024-02-26T05:27:25;3.70;;;2.13;;
64110;SDS011;50401;48.188;11.566;2024-02-26T05:29:50;3.88;;;2.30;;
64110;SDS011;50401;48.188;11.566;2024-02-26T05:32:16;2.20;;;1.70;;
64110;SDS011;50401;48.188;11.566;2024-02-26T05:34:42;9.30;;;2.38;;
64110;SDS011;50401;48.188;11.566;2024-02-26T05:37:07;3.30;;;1.77;;
64110;SDS011;50401;48.188;11.566;2024-02-26T05:39:33;4.07;;;2.03;;
64110;SDS011;50401;48.188;11.566;2024-02-26T05:41:58;6.03;;;2.40;;
64110;SDS011;50401;48.188;11.566;2024-02-26T05:44:25;17.70;;;5.53;;
64110;SDS011;50401;48.188;11.566;2024-02-26T05:46:51;8.32;;;2.40;;
64110;SDS011;50401;48.188;11.566;2024-02-26T05:49:16;4.13;;;2.30;;
64110;SDS011;50401;48.188;11.566;2024-02-26T05:51:42;6.63;;;2.65;;
64110;SDS011;50401;48.188;11.566;2024-02-26T05:54:07;7.28;;;2.97;;
64110;SDS011;50401;48.188;11.566;2024-02-26T05:56:33;5.50;;;2.33;;
64110;SDS011;50401;48.188;11.566;2024-02-26T05:58:58;2.83;;;2.00;;
64110;SDS011;50401;48.188;11.566;2024-02-26T06:01:24;5.13;;;2.47;;
64110;SDS011;50401;48.188;11.566;2024-02-26T06:03:50;3.85;;;2.42;;
64110;SDS011;50401;48.188;11.566;2024-02-26T06:06:16;8.93;;;2.55;;
64110;SDS011;50401;48.188;11.566;2024-02-26T06:08:41;5.43;;;2.20;;
64110;SDS011;50401;48.188;11.566;2024-02-26T06:11:07;4.68;;;2.47;;
64110;SDS011;50401;48.188;11.566;2024-02-26T06:13:33;4.82;;;2.30;;
64110;SDS011;50401;48.188;11.566;2024-02-26T06:15:59;9.45;;;2.20;;
64110;SDS011;50401;48.188;11.566;2024-02-26T06:18:24;5.10;;;2.50;;
64110;SDS011;50401;48.188;11.566;2024-02-26T06:20:49;14.52;;;2.60;;
64110;SDS011;50401;48.188;11.566;2024-02-26T06:23:15;7.50;;;2.70;;
64110;SDS011;50401;48.188;11.566;2024-02-26T06:25:41;11.48;;;2.78;;
64110;SDS011;50401;48.188;11.566;2024-02-26T06:28:07;9.82;;;2.78;;
64110;SDS011;50401;48.188;11.566;2024-02-26T06:30:33;7.63;;;2.50;;
64110;SDS011;50401;48.188;11.566;2024-02-26T06:32:58;7.10;;;2.72;;
64110;SDS011;50401;48.188;11.566;2024-02-26T06:35:24;6.07;;;2.50;;
64110;SDS011;50401;48.188;11.566;2024-02-26T06:37:49;13.05;;;2.95;;
64110;SDS011;50401;48.188;11.566;2024-02-26T06:40:17;10.68;;;3.10;;
64110;SDS011;50401;48.188;11.566;2024-02-26T06:42:43;13.07;;;2.97;;
64110;SDS011;50401;48.188;11.566;2024-02-26T06:45:08;20.50;;;4.30;;
64110;SDS011;50401;48.188;11.566;2024-02-26T06:47:34;25.98;;;3.25;;
64110;SDS011;50401;48.188;11.566;2024-02-26T06:50:00;11.55;;;3.00;;
64110;SDS011;50401;48.188;11.566;2024-02-26T06:52:25;15.40;;;3.60;;
64110;SDS011;50401;48.188;11.566;2024-02-26T06:54:51;16.35;;;2.92;;
64110;SDS011;50401;48.188;11.566;2024-02-26T06:57:18;14.13;;;2.97;;
64110;SDS011;50401;48.188;11.566;2024-02-26T06:59:46;6.70;;;2.90;;
64110;SDS011;50401;48.188;11.566;2024-02-26T07:02:12;15.27;;;3.00;;
64110;SDS011;50401;48.188;11.566;2024-02-26T07:04:39;11.02;;;3.20;;
64110;SDS011;50401;48.188;11.566;2024-02-26T07:07:04;8.63;;;3.08;;
64110;SDS011;50401;48.188;11.566;2024-02-26T07:09:29;5.53;;;2.60;;
64110;SDS011;50401;48.188;11.566;2024-02-26T07:11:55;12.52;;;4.00;;
64110;SDS011;50401;48.188;11.566;2024-02-26T07:14:20;9.68;;;2.80;;
64110;SDS011;50401;48.188;11.566;2024-02-26T07:16:46;7.70;;;3.08;;
64110;SDS011;50401;48.188;11.566;2024-02-26T07:19:11;12.88;;;3.80;;
64110;SDS011;50401;48.188;11.566;2024-02-26T07:21:36;11.55;;;3.30;;
64110;SDS011;50401;48.188;11.566;2024-02-26T07:24:02;9.85;;;3.83;;
64110;SDS011;50401;48.188;11.566;2024-02-26T07:26:27;7.15;;;3.05;;
64110;SDS011;50401;48.188;11.566;2024-02-26T07:28:54;5.55;;;3.28;;
64110;SDS011;50401;48.188;11.566;2024-02-26T07:31:20;14.15;;;3.22;;
64110;SDS011;50401;48.188;11.566;2024-02-26T07:33:45;10.27;;;2.97;;
64110;SDS011;50401;48.188;11.566;2024-02-26T07:36:11;10.57;;;2.80;;
64110;SDS011;50401;48.188;11.566;2024-02-26T07:38:36;8.45;;;3.17;;
64110;SDS011;50401;48.188;11.566;2024-02-26T07:41:02;11.27;;;3.63;;
64110;SDS011;50401;48.188;11.566;2024-02-26T07:43:27;13.30;;;3.22;;
64110;SDS011;50401;48.188;11.566;2024-02-26T07:45:53;9.50;;;3.05;;
64110;SDS011;50401;48.188;11.566;2024-02-26T07:48:18;9.45;;;3.47;;
64110;SDS011;50401;48.188;11.566;2024-02-26T07:50:44;12.75;;;3.22;;
64110;SDS011;50401;48.188;11.566;2024-02-26T07:53:09;6.55;;;3.20;;
64110;SDS011;50401;48.188;11.566;2024-02-26T07:55:35;6.72;;;3.20;;
64110;SDS011;50401;48.188;11.566;2024-02-26T07:58:00;12.13;;;3.92;;
64110;SDS011;50401;48.188;11.566;2024-02-26T08:00:25;8.98;;;3.30;;
64110;SDS011;50401;48.188;11.566;2024-02-26T08:02:51;16.00;;;4.57;;
64110;SDS011;50401;48.188;11.566;2024-02-26T08:05:16;10.13;;;3.60;;
64110;SDS011;50401;48.188;11.566;2024-02-26T08:07:42;7.35;;;3.10;;
64110;SDS011;50401;48.188;11.566;2024-02-26T08:10:07;5.00;;;2.97;;
64110;SDS011;50401;48.188;11.566;2024-02-26T08:12:33;5.82;;;2.90;;
64110;SDS011;50401;48.188;11.566;2024-02-26T08:14:58;9.65;;;3.03;;
64110;SDS011;50401;48.188;11.566;2024-02-26T08:17:25;11.93;;;3.67;;
64110;SDS011;50401;48.188;11.566;2024-02-26T08:19:50;5.82;;;3.35;;
64110;SDS011;50401;48.188;11.566;2024-02-26T08:22:16;9.32;;;4.05;;
64110;SDS011;50401;48.188;11.566;2024-02-26T08:24:42;19.95;;;3.47;;
64110;SDS011;50401;48.188;11.566;2024-02-26T08:27:08;10.45;;;3.10;;
64110;SDS011;50401;48.188;11.566;2024-02-26T08:29:34;5.05;;;2.70;;
64110;SDS011;50401;48.188;11.566;2024-02-26T08:31:59;5.65;;;3.17;;
64110;SDS011;50401;48.188;11.566;2024-02-26T08:34:25;4.40;;;2.70;;
64110;SDS011;50401;48.188;11.566;2024-02-26T08:36:51;9.10;;;2.78;;
64110;SDS011;50401;48.188;11.566;2024-02-26T08:39:16;13.18;;;2.70;;
64110;SDS011;50401;48.188;11.566;2024-02-26T08:41:42;9.15;;;3.00;;
64110;SDS011;50401;48.188;11.566;2024-02-26T08:44:08;10.95;;;2.97;;
64110;SDS011;50401;48.188;11.566;2024-02-26T08:46:34;16.08;;;3.17;;
64110;SDS011;50401;48.188;11.566;2024-02-26T08:48:59;31.10;;;4.35;;
64110;SDS011;50401;48.188;11.566;2024-02-26T08:51:25;7.07;;;2.63;;
64110;SDS011;50401;48.188;11.566;2024-02-26T08:53:50;7.95;;;2.78;;
64110;SDS011;50401;48.188;11.566;2024-02-26T08:56:16;13.30;;;3.78;;
64110;SDS011;50401;48.188;11.566;2024-02-26T08:58:45;12.57;;;2.90;;
64110;SDS011;50401;48.188;11.566;2024-02-26T09:01:13;10.60;;;3.13;;
64110;SDS011;50401;48.188;11.566;2024-02-26T09:03:39;14.23;;;3.67;;
64110;SDS011;50401;48.188;11.566;2024-02-26T09:06:05;18.63;;;3.58;;
64110;SDS011;50401;48.188;11.566;2024-02-26T09:08:31;11.50;;;3.10;;
64110;SDS011;50401;48.188;11.566;2024-02-26T09:10:57;4.20;;;2.78;;
64110;SDS011;50401;48.188;11.566;2024-02-26T09:13:22;17.83;;;3.97;;
64110;SDS011;50401;48.188;11.566;2024-02-26T09:15:48;8.70;;;3.75;;
64110;SDS011;50401;48.188;11.566;2024-02-26T09:18:14;22.52;;;4.03;;
64110;SDS011;50401;48.188;11.566;2024-02-26T09:20:40;5.82;;;3.40;;
64110;SDS011;50401;48.188;11.566;2024-02-26T09:23:05;11.95;;;3.08;;
64110;SDS011;50401;48.188;11.566;2024-02-26T09:25:31;10.07;;;2.97;;
64110;SDS011;50401;48.188;11.566;2024-02-26T09:27:58;5.65;;;2.60;;
64110;SDS011;50401;48.188;11.566;2024-02-26T09:30:24;12.57;;;2.88;;
64110;SDS011;50401;48.188;11.566;2024-02-26T09:32:49;11.70;;;2.75;;
64110;SDS011;50401;48.188;11.566;2024-02-26T09:35:15;12.00;;;2.40;;
64110;SDS011;50401;48.188;11.566;2024-02-26T09:37:40;10.38;;;2.60;;
64110;SDS011;50401;48.188;11.566;2024-02-26T09:40:06;15.25;;;2.78;;
64110;SDS011;50401;48.188;11.566;2024-02-26T09:42:32;8.57;;;2.67;;
64110;SDS011;50401;48.188;11.566;2024-02-26T09:44:59;16.15;;;2.55;;
64110;SDS011;50401;48.188;11.566;2024-02-26T09:47:28;5.70;;;2.75;;
64110;SDS011;50401;48.188;11.566;2024-02-26T09:49:56;17.50;;;2.45;;
64110;SDS011;50401;48.188;11.566;2024-02-26T09:52:23;7.75;;;2.83;;
64110;SDS011;50401;48.188;11.566;2024-02-26T09:54:50;19.67;;;3.05;;
64110;SDS011;50401;48.188;11.566;2024-02-26T09:57:15;6.65;;;2.60;;
64110;SDS011;50401;48.188;11.566;2024-02-26T09:59:42;17.15;;;2.90;;
64110;SDS011;50401;48.188;11.566;2024-02-26T10:02:12;7.45;;;2.75;;
64110;SDS011;50401;48.188;11.566;2024-02-26T10:04:39;4.70;;;2.28;;
64110;SDS011;50401;48.188;11.566;2024-02-26T10:07:06;5.95;;;2.42;;
64110;SDS011;50401;48.188;11.566;2024-02-26T10:09:35;7.93;;;2.22;;
64110;SDS011;50401;48.188;11.566;2024-02-26T10:12:00;11.68;;;2.33;;
64110;SDS011;50401;48.188;11.566;2024-02-26T10:14:26;8.95;;;2.47;;
64110;SDS011;50401;48.188;11.566;2024-02-26T10:16:52;14.23;;;2.90;;
64110;SDS011;50401;48.188;11.566;2024-02-26T10:19:27;8.63;;;2.40;;
64110;SDS011;50401;48.188;11.566;2024-02-26T10:21:57;7.18;;;2.67;;
64110;SDS011;50401;48.188;11.566;2024-02-26T10:24:24;10.52;;;2.47;;
64110;SDS011;50401;48.188;11.566;2024-02-26T10:26:50;3.75;;;2.10;;
64110;SDS011;50401;48.188;11.566;2024-02-26T10:29:17;6.18;;;2.33;;
64110;SDS011;50401;48.188;11.566;2024-02-26T10:31:43;5.68;;;2.28;;
64110;SDS011;50401;48.188;11.566;2024-02-26T10:34:09;2.50;;;1.60;;
64110;SDS011;50401;48.188;11.566;2024-02-26T10:36:35;7.43;;;2.63;;
64110;SDS011;50401;48.188;11.566;2024-02-26T10:39:01;4.25;;;1.75;;
64110;SDS011;50401;48.188;11.566;2024-02-26T10:41:28;7.93;;;2.00;;
64110;SDS011;50401;48.188;11.566;2024-02-26T10:43:54;4.60;;;1.45;;
64110;SDS011;50401;48.188;11.566;2024-02-26T10:46:19;5.13;;;1.85;;
64110;SDS011;50401;48.188;11.566;2024-02-26T10:48:49;5.80;;;1.98;;
64110;SDS011;50401;48.188;11.566;2024-02-26T10:51:16;9.43;;;2.45;;
64110;SDS011;50401;48.188;11.566;2024-02-26T10:53:47;5.65;;;1.90;;
64110;SDS011;50401;48.188;11.566;2024-02-26T10:56:18;12.65;;;2.50;;
64110;SDS011;50401;48.188;11.566;2024-02-26T10:58:45;3.78;;;2.10;;
64110;SDS011;50401;48.188;11.566;2024-02-26T11:01:12;3.15;;;1.80;;
64110;SDS011;50401;48.188;11.566;2024-02-26T11:03:38;3.83;;;1.52;;
64110;SDS011;50401;48.188;11.566;2024-02-26T11:06:04;3.35;;;1.73;;
64110;SDS011;50401;48.188;11.566;2024-02-26T11:08:30;2.60;;;1.70;;
64110;SDS011;50401;48.188;11.566;2024-02-26T11:10:57;3.00;;;1.60;;
64110;SDS011;50401;48.188;11.566;2024-02-26T11:13:23;3.67;;;1.80;;
64110;SDS011;50401;48.188;11.566;2024-02-26T11:15:55;5.55;;;1.65;;
64110;SDS011;50401;48.188;11.566;2024-02-26T11:18:22;2.75;;;1.48;;
64110;SDS011;50401;48.188;11.566;2024-02-26T11:20:50;11.40;;;1.63;;
64110;SDS011;50401;48.188;11.566;2024-02-26T11:23:17;5.35;;;2.10;;
64110;SDS011;50401;48.188;11.566;2024-02-26T11:25:42;2.97;;;1.60;;
64110;SDS011;50401;48.188;11.566;2024-02-26T11:28:12;7.68;;;1.63;;
64110;SDS011;50401;48.188;11.566;2024-02-26T11:30:42;5.28;;;1.88;;
64110;SDS011;50401;48.188;11.566;2024-02-26T11:33:10;8.40;;;1.52;;
64110;SDS011;50401;48.188;11.566;2024-02-26T11:35:37;5.40;;;1.55;;
64110;SDS011;50401;48.188;11.566;2024-02-26T11:38:03;4.82;;;1.42;;
64110;SDS011;50401;48.188;11.566;2024-02-26T11:40:30;4.45;;;1.30;;
64110;SDS011;50401;48.188;11.566;2024-02-26T11:42:57;3.67;;;1.38;;
64110;SDS011;50401;48.188;11.566;2024-02-26T11:48:04;3.28;;;1.20;;
64110;SDS011;50401;48.188;11.566;2024-02-26T11:50:40;1.77;;;1.00;;
64110;SDS011;50401;48.188;11.566;2024-02-26T11:53:23;5.28;;;1.27;;
64110;SDS011;50401;48.188;11.566;2024-02-26T12:01:49;4.38;;;1.30;;
64110;SDS011;50401;48.188;11.566;2024-02-26T12:04:18;3.22;;;0.85;;
64110;SDS011;50401;48.188;11.566;2024-02-26T12:06:55;3.38;;;0.98;;
64110;SDS011;50401;48.188;11.566;2024-02-26T12:12:03;12.93;;;1.38;;
64110;SDS011;50401;48.188;11.566;2024-02-26T12:14:32;8.98;;;1.10;;
64110;SDS011;50401;48.188;11.566;2024-02-26T12:16:58;4.25;;;1.00;;
64110;SDS011;50401;48.188;11.566;2024-02-26T12:19:23;2.75;;;1.10;;
64110;SDS011;50401;48.188;11.566;2024-02-26T12:21:52;1.67;;;1.45;;
64110;SDS011;50401;48.188;11.566;2024-02-26T12:24:19;4.22;;;1.20;;
64110;SDS011;50401;48.188;11.566;2024-02-26T12:26:45;5.57;;;1.10;;
64110;SDS011;50401;48.188;11.566;2024-02-26T12:29:11;2.78;;;1.40;;
64110;SDS011;50401;48.188;11.566;2024-02-26T12:31:38;1.20;;;1.00;;
64110;SDS011;50401;48.188;11.566;2024-02-26T12:34:05;4.70;;;1.20;;
64110;SDS011;50401;48.188;11.566;2024-02-26T12:36:35;2.25;;;1.50;;
64110;SDS011;50401;48.188;11.566;2024-02-26T12:41:27;2.13;;;1.52;;
64110;SDS011;50401;48.188;11.566;2024-02-26T12:43:54;5.10;;;2.90;;
64110;SDS011;50401;48.188;11.566;2024-02-26T12:46:19;3.95;;;1.67;;
64110;SDS011;50401;48.188;11.566;2024-02-26T12:48:46;9.45;;;1.60;;
64110;SDS011;50401;48.188;11.566;2024-02-26T12:51:12;6.47;;;2.03;;
64110;SDS011;50401;48.188;11.566;2024-02-26T12:53:39;7.18;;;2.05;;
64110;SDS011;50401;48.188;11.566;2024-02-26T12:56:05;3.58;;;1.70;;
64110;SDS011;50401;48.188;11.566;2024-02-26T12:58:33;4.32;;;1.85;;
64110;SDS011;50401;48.188;11.566;2024-02-26T13:00:59;12.50;;;3.60;;
64110;SDS011;50401;48.188;11.566;2024-02-26T13:03:25;2.63;;;1.63;;
64110;SDS011;50401;48.188;11.566;2024-02-26T13:05:52;2.13;;;1.65;;
64110;SDS011;50401;48.188;11.566;2024-02-26T13:08:19;3.88;;;1.80;;
64110;SDS011;50401;48.188;11.566;2024-02-26T13:10:45;5.55;;;1.80;;
64110;SDS011;50401;48.188;11.566;2024-02-26T13:13:12;4.22;;;1.83;;
64110;SDS011;50401;48.188;11.566;2024-02-26T13:15:40;4.80;;;2.20;;
64110;SDS011;50401;48.188;11.566;2024-02-26T13:18:12;3.75;;;1.75;;
64110;SDS011;50401;48.188;11.566;2024-02-26T13:20:39;2.55;;;1.92;;
64110;SDS011;50401;48.188;11.566;2024-02-26T13:23:09;3.15;;;1.67;;
64110;SDS011;50401;48.188;11.566;2024-02-26T13:25:37;2.30;;;1.50;;
64110;SDS011;50401;48.188;11.566;2024-02-26T13:28:19;2.17;;;1.50;;
64110;SDS011;50401;48.188;11.566;2024-02-26T13:30:53;4.70;;;1.67;;
64110;SDS011;50401;48.188;11.566;2024-02-26T13:33:25;11.40;;;2.75;;
64110;SDS011;50401;48.188;11.566;2024-02-26T13:35:51;4.13;;;1.90;;
64110;SDS011;50401;48.188;11.566;2024-02-26T13:38:17;8.60;;;2.63;;
64110;SDS011;50401;48.188;11.566;2024-02-26T13:40:42;1.13;;;0.70;;
64110;SDS011;50401;48.188;11.566;2024-02-26T13:43:08;0.70;;;0.70;;
64110;SDS011;50401;48.188;11.566;2024-02-26T13:45:34;1.38;;;0.60;;
64110;SDS011;50401;48.188;11.566;2024-02-26T13:48:04;7.20;;;0.77;;
64110;SDS011;50401;48.188;11.566;2024-02-26T13:50:35;1.70;;;0.98;;
64110;SDS011;50401;48.188;11.566;2024-02-26T13:53:00;0.98;;;0.80;;
64110;SDS011;50401;48.188;11.566;2024-02-26T13:55:26;5.43;;;0.70;;
64110;SDS011;50401;48.188;11.566;2024-02-26T13:57:53;1.17;;;0.77;;
64110;SDS011;50401;48.188;11.566;2024-02-26T14:00:19;3.03;;;1.30;;
64110;SDS011;50401;48.188;11.566;2024-02-26T14:02:45;0.80;;;0.65;;
64110;SDS011;50401;48.188;11.566;2024-02-26T14:05:10;3.78;;;1.30;;
64110;SDS011;50401;48.188;11.566;2024-02-26T14:07:36;3.75;;;1.20;;
64110;SDS011;50401;48.188;11.566;2024-02-26T14:10:01;5.38;;;0.88;;
64110;SDS011;50401;48.188;11.566;2024-02-26T14:12:27;1.20;;;1.02;;
64110;SDS011;50401;48.188;11.566;2024-02-26T14:14:53;2.53;;;1.38;;
64110;SDS011;50401;48.188;11.566;2024-02-26T14:17:20;4.82;;;1.40;;
64110;SDS011;50401;48.188;11.566;2024-02-26T14:19:46;10.13;;;1.55;;
64110;SDS011;50401;48.188;11.566;2024-02-26T14:22:13;1.90;;;1.38;;
64110;SDS011;50401;48.188;11.566;2024-02-26T14:24:39;2.85;;;1.17;;
64110;SDS011;50401;48.188;11.566;2024-02-26T14:27:08;2.75;;;1.30;;
64110;SDS011;50401;48.188;11.566;2024-02-26T14:29:35;2.75;;;1.30;;
64110;SDS011;50401;48.188;11.566;2024-02-26T14:32:00;2.47;;;1.52;;
64110;SDS011;50401;48.188;11.566;2024-02-26T14:34:26;1.90;;;1.30;;
64110;SDS011;50401;48.188;11.566;2024-02-26T14:36:52;2.25;;;1.35;;
64110;SDS011;50401;48.188;11.566;2024-02-26T14:39:17;2.90;;;1.50;;
64110;SDS011;50401;48.188;11.566;2024-02-26T14:41:42;3.30;;;1.27;;